createdAt,value
2023-01-09T00:01:54.699Z,98918.39
2023-01-09T00:06:58.004Z,98923.63
2023-01-09T00:12:02.849Z,98926.92
2023-01-09T00:17:06.359Z,98939.23
2023-01-09T00:22:09.985Z,98940.48
2023-01-09T00:27:14.619Z,98957.90
2023-01-09T00:32:18.345Z,98926.89
2023-01-09T00:37:21.856Z,98901.03
2023-01-09T00:42:31.205Z,98889.31
2023-01-09T00:47:43.222Z,98903.02
2023-01-09T00:52:48.525Z,98920.20
2023-01-09T00:57:51.994Z,98923.16
2023-01-09T01:02:55.878Z,98921.27
2023-01-09T01:07:59.432Z,98931.27
2023-01-09T01:13:02.947Z,98918.77
2023-01-09T01:18:07.078Z,98910.21
2023-01-09T01:23:10.768Z,98906.02
2023-01-09T01:28:14.313Z,98900.63
2023-01-09T01:33:17.830Z,98918.94
2023-01-09T01:38:21.350Z,98932.55
2023-01-09T01:43:25.576Z,98925.61
2023-01-09T01:48:30.733Z,98918.17
2023-01-09T01:53:41.731Z,98905.83
2023-01-09T01:58:50.460Z,98897.92
2023-01-09T02:03:57.867Z,98888.74
2023-01-09T02:09:04.321Z,98908.15
2023-01-09T02:14:07.978Z,98907.88
2023-01-09T02:19:46.101Z,98908.83
2023-01-09T02:24:52.378Z,98901.23
2023-01-09T02:30:12.071Z,98906.17
2023-01-09T02:35:40.166Z,98901.42
2023-01-09T02:40:50.745Z,98907.96
2023-01-09T02:45:54.253Z,98919.77
2023-01-09T02:51:34.329Z,98910.30
2023-01-09T02:56:46.960Z,98907.29
2023-01-09T03:02:07.896Z,98900.96
2023-01-09T03:07:19.696Z,98893.98
2023-01-09T03:12:28.639Z,98892.45
2023-01-09T03:17:40.783Z,98882.17
2023-01-09T03:23:06.583Z,98872.46
2023-01-09T03:28:27.107Z,98873.33
2023-01-09T03:33:30.629Z,98881.63
2023-01-09T03:38:34.451Z,98872.45
2023-01-09T03:43:37.965Z,98874.48
2023-01-09T03:48:41.695Z,98859.71
2023-01-09T03:53:45.199Z,98856.89
2023-01-09T03:58:50.456Z,98850.65
2023-01-09T04:03:54.176Z,98837.46
2023-01-09T04:08:57.800Z,98829.77
2023-01-09T04:14:01.311Z,98836.86
2023-01-09T04:19:04.929Z,98835.97
2023-01-09T04:24:08.956Z,98826.41
2023-01-09T04:29:12.578Z,98820.79
2023-01-09T04:34:16.193Z,98814.10
2023-01-09T04:39:19.822Z,98796.42
2023-01-09T04:44:28.234Z,98799.27
2023-01-09T04:49:31.653Z,98794.32
2023-01-09T04:54:35.182Z,98798.20
2023-01-09T04:59:38.683Z,98806.20
2023-01-09T05:04:42.319Z,98810.98
2023-01-09T05:09:45.823Z,98809.37
2023-01-09T05:14:49.442Z,98807.86
2023-01-09T05:19:53.053Z,98807.89
2023-01-09T05:24:56.936Z,98799.41
2023-01-09T05:30:00.830Z,98788.91
2023-01-09T05:35:04.726Z,98785.13
2023-01-09T05:40:09.010Z,98777.50
2023-01-09T05:45:12.994Z,98766.90
2023-01-09T05:50:16.715Z,98765.45
2023-01-09T05:55:20.632Z,98760.05
2023-01-09T06:00:24.424Z,98756.70
2023-01-09T06:05:28.790Z,98754.15
2023-01-09T06:10:32.098Z,98756.52
2023-01-09T06:15:35.766Z,98755.00
2023-01-09T06:20:39.438Z,98748.89
2023-01-09T06:25:43.063Z,98740.48
2023-01-09T06:30:51.406Z,98735.27
2023-01-09T06:35:54.898Z,98741.98
2023-01-09T06:40:58.421Z,98745.85
2023-01-09T06:46:02.371Z,98740.19
2023-01-09T06:51:06.231Z,98746.64
2023-01-09T06:56:09.679Z,98747.96
2023-01-09T07:01:13.341Z,98752.80
2023-01-09T07:06:18.449Z,98756.27
2023-01-09T07:11:21.964Z,98762.15
2023-01-09T07:16:25.843Z,98762.54
2023-01-09T07:21:30.864Z,98761.15
2023-01-09T07:26:36.401Z,98754.86
2023-01-09T07:31:40.008Z,98752.02
2023-01-09T07:36:46.811Z,98750.16
2023-01-09T07:41:50.327Z,98747.30
2023-01-09T07:46:53.945Z,98744.14
2023-01-09T07:51:57.567Z,98742.75
2023-01-09T07:57:01.387Z,98742.28
2023-01-09T08:02:05.996Z,98745.08
2023-01-09T08:07:09.748Z,98749.23
2023-01-09T08:12:13.266Z,98742.98
2023-01-09T08:17:16.786Z,98737.69
2023-01-09T08:22:20.603Z,98735.88
2023-01-09T08:27:24.120Z,98724.38
2023-01-09T08:32:27.740Z,98718.38
2023-01-09T08:37:31.355Z,98715.68
2023-01-09T08:42:53.407Z,98711.81
2023-01-09T08:47:57.856Z,98701.59
2023-01-09T08:53:01.056Z,98687.83
2023-01-09T08:58:04.780Z,98690.75
2023-01-09T09:03:11.409Z,98690.66
2023-01-09T09:08:16.067Z,98693.91
2023-01-09T09:13:19.517Z,98688.86
2023-01-09T09:18:23.133Z,98690.08
2023-01-09T09:23:26.751Z,98685.19
2023-01-09T09:28:30.372Z,98689.95
2023-01-09T09:33:34.398Z,98677.69
2023-01-09T09:38:37.827Z,98672.02
2023-01-09T09:44:35.600Z,98662.38
2023-01-09T09:50:31.648Z,98656.23
2023-01-09T09:55:38.825Z,98648.37
2023-01-09T10:00:42.976Z,98641.52
2023-01-09T10:05:50.750Z,98634.81
2023-01-09T10:10:55.753Z,98621.16
2023-01-09T10:16:08.092Z,98623.27
2023-01-09T10:21:32.678Z,98622.33
2023-01-09T10:26:43.775Z,98609.30
2023-01-09T10:31:56.299Z,98603.88
2023-01-09T10:37:19.517Z,98610.29
2023-01-09T10:42:32.230Z,98613.95
2023-01-09T10:47:39.813Z,98612.92
2023-01-09T10:52:43.339Z,98603.20
2023-01-09T10:57:53.912Z,98596.69
2023-01-09T11:02:57.328Z,98589.79
2023-01-09T11:08:13.230Z,98582.64
2023-01-09T11:13:26.068Z,98581.75
2023-01-09T11:18:29.682Z,98573.20
2023-01-09T11:23:34.024Z,98573.31
2023-01-09T11:28:37.227Z,98571.11
2023-01-09T11:33:50.177Z,98578.20
2023-01-09T11:38:59.413Z,98566.96
2023-01-09T11:44:05.279Z,98569.42
2023-01-09T11:49:21.191Z,98566.52
2023-01-09T11:54:32.390Z,98563.63
2023-01-09T11:59:36.108Z,98561.57
2023-01-09T12:05:04.910Z,98564.25
2023-01-09T12:10:18.873Z,98558.66
2023-01-09T12:15:44.304Z,98552.98
2023-01-09T12:20:53.655Z,98547.92
2023-01-09T12:26:21.745Z,98541.77
2023-01-09T12:31:28.399Z,98538.68
2023-01-09T12:37:11.558Z,98535.46
2023-01-09T12:42:34.552Z,98531.68
2023-01-09T12:47:46.653Z,98521.36
2023-01-09T12:53:06.978Z,98517.66
2023-01-09T12:58:26.368Z,98511.40
2023-01-09T13:03:48.519Z,98506.45
2023-01-09T13:09:04.835Z,98504.41
2023-01-09T13:14:46.649Z,98504.01
2023-01-09T13:19:50.060Z,98506.53
2023-01-09T13:25:16.620Z,98494.70
2023-01-09T13:30:25.148Z,98491.98
2023-01-09T13:35:28.768Z,98485.72
2023-01-09T13:40:33.308Z,98484.45
2023-01-09T13:45:39.967Z,98478.92
2023-01-09T13:50:47.278Z,98472.09
2023-01-09T13:56:00.238Z,98468.92
2023-01-09T14:01:37.645Z,98465.98
2023-01-09T14:06:41.163Z,98465.86
2023-01-09T14:11:46.123Z,98468.91
2023-01-09T14:16:49.766Z,98477.60
2023-01-09T14:21:56.411Z,98475.61
2023-01-09T14:27:01.988Z,98475.60
2023-01-09T14:32:23.828Z,98475.83
2023-01-09T14:37:30.743Z,98474.74
2023-01-09T14:42:40.690Z,98472.44
2023-01-09T14:48:01.102Z,98469.95
2023-01-09T14:53:11.374Z,98473.98
2023-01-09T14:58:23.047Z,98477.67
2023-01-09T15:03:47.895Z,98484.06
2023-01-09T15:09:28.789Z,98488.94
2023-01-09T15:14:46.029Z,98480.20
2023-01-09T15:19:50.463Z,98478.23
2023-01-09T15:24:53.979Z,98481.27
2023-01-09T15:30:16.299Z,98485.15
2023-01-09T15:35:20.692Z,98482.95
2023-01-09T15:40:32.380Z,98484.52
2023-01-09T15:45:40.331Z,98493.98
2023-01-09T15:50:45.173Z,98494.49
2023-01-09T15:56:13.862Z,98495.12
2023-01-09T16:01:32.419Z,98488.10
2023-01-09T16:06:47.200Z,98489.25
2023-01-09T16:11:53.480Z,98486.37
2023-01-09T16:17:02.729Z,98483.71
2023-01-09T16:22:25.908Z,98482.73
2023-01-09T16:27:35.886Z,98494.40
2023-01-09T16:32:51.785Z,98504.84
2023-01-09T16:37:55.297Z,98502.23
2023-01-09T16:43:01.299Z,98493.70
2023-01-09T16:48:16.454Z,98496.86
2023-01-09T16:53:28.780Z,98499.50
2023-01-09T16:58:35.883Z,98502.19
2023-01-09T17:03:43.547Z,98501.94
2023-01-09T17:08:47.516Z,98505.35
2023-01-09T17:13:51.339Z,98513.64
2023-01-09T17:18:54.757Z,98522.70
2023-01-09T17:24:18.335Z,98531.64
2023-01-09T17:29:22.259Z,98529.30
2023-01-09T17:34:25.677Z,98526.01
2023-01-09T17:39:29.212Z,98516.80
2023-01-09T17:44:32.744Z,98524.42
2023-01-09T17:49:36.231Z,98533.27
2023-01-09T17:54:40.666Z,98545.46
2023-01-09T17:59:45.306Z,98535.85
2023-01-09T18:04:48.919Z,98540.08
2023-01-09T18:09:52.234Z,98536.89
2023-01-09T18:14:55.847Z,98536.52
2023-01-09T18:19:59.267Z,98540.84
2023-01-09T18:25:04.608Z,98537.75
2023-01-09T18:30:09.056Z,98533.69
2023-01-09T18:35:12.185Z,98529.24
2023-01-09T18:40:16.092Z,98530.73
2023-01-09T18:45:22.800Z,98539.06
2023-01-09T18:50:26.315Z,98549.85
2023-01-09T18:55:29.810Z,98547.91
2023-01-09T19:00:33.636Z,98543.86
2023-01-09T19:05:37.044Z,98546.88
2023-01-09T19:10:40.868Z,98548.45
2023-01-09T19:15:44.296Z,98549.95
2023-01-09T19:20:47.911Z,98553.65
2023-01-09T19:25:53.476Z,98551.98
2023-01-09T19:30:57.599Z,98558.02
2023-01-09T19:36:01.206Z,98550.88
2023-01-09T19:41:21.008Z,98544.84
2023-01-09T19:46:26.371Z,98540.65
2023-01-09T19:51:29.879Z,98556.27
2023-01-09T19:56:44.047Z,98568.83
2023-01-09T20:01:48.283Z,98572.95
2023-01-09T20:06:52.931Z,98587.30
2023-01-09T20:11:56.949Z,98599.29
2023-01-09T20:17:04.465Z,98605.66
2023-01-09T20:22:07.872Z,98618.99
2023-01-09T20:27:11.491Z,98628.46
2023-01-09T20:32:14.901Z,98644.72
2023-01-09T20:37:18.417Z,98652.39
2023-01-09T20:42:21.936Z,98674.92
2023-01-09T20:47:26.278Z,98693.56
2023-01-09T20:52:29.682Z,98710.37
2023-01-09T20:57:33.299Z,98710.38
2023-01-09T21:02:37.427Z,98706.36
2023-01-09T21:07:40.952Z,98705.36
2023-01-09T21:12:44.466Z,98700.51
2023-01-09T21:17:48.093Z,98707.65
2023-01-09T21:22:52.103Z,98716.07
2023-01-09T21:27:55.727Z,98717.30
2023-01-09T21:32:59.238Z,98730.41
2023-01-09T21:38:03.278Z,98737.10
2023-01-09T21:43:25.422Z,98746.77
2023-01-09T21:48:28.934Z,98749.44
2023-01-09T21:53:32.448Z,98758.91
2023-01-09T21:58:36.285Z,98765.29
2023-01-09T22:03:39.685Z,98779.41
2023-01-09T22:08:43.305Z,98781.21
2023-01-09T22:13:52.200Z,98783.97
2023-01-09T22:18:56.885Z,98785.77
2023-01-09T22:24:01.968Z,98796.13
2023-01-09T22:29:05.431Z,98807.70
2023-01-09T22:34:17.574Z,98813.80
2023-01-09T22:39:21.290Z,98826.93
2023-01-09T22:44:24.906Z,98829.11
2023-01-09T22:49:33.472Z,98833.73
2023-01-09T22:54:44.750Z,98843.52
2023-01-09T22:59:48.157Z,98849.12
2023-01-09T23:05:48.307Z,98851.17
2023-01-09T23:11:12.165Z,98851.75
2023-01-09T23:16:15.408Z,98858.05
2023-01-09T23:21:18.915Z,98869.90
2023-01-09T23:26:22.437Z,98882.54
2023-01-09T23:31:26.308Z,98893.63
2023-01-09T23:36:30.286Z,98901.90
2023-01-09T23:41:52.229Z,98906.48
2023-01-09T23:46:55.747Z,98912.89
2023-01-09T23:52:01.942Z,98915.48
2023-01-09T23:57:05.756Z,98921.77
